sensor_id;sensor_type;location;lat;lon;timestamp;P1;durP1;ratioP1;P2;durP2;ratioP2
28772;SDS011;15925;51.222;5.678;2022-08-14T00:00:52;10.27;;;3.03;;
28772;SDS011;15925;51.222;5.678;2022-08-14T00:03:28;2.78;;;2.10;;
28772;SDS011;15925;51.222;5.678;2022-08-14T00:05:58;3.28;;;2.10;;
28772;SDS011;15925;51.222;5.678;2022-08-14T00:08:26;2.47;;;2.28;;
28772;SDS011;15925;51.222;5.678;2022-08-14T00:13:19;5.72;;;2.35;;
28772;SDS011;15925;51.222;5.678;2022-08-14T00:15:47;2.42;;;2.08;;
28772;SDS011;15925;51.222;5.678;2022-08-14T00:18:15;4.15;;;1.83;;
28772;SDS011;15925;51.222;5.678;2022-08-14T00:20:43;3.63;;;1.65;;
28772;SDS011;15925;51.222;5.678;2022-08-14T00:23:11;2.15;;;1.70;;
28772;SDS011;15925;51.222;5.678;2022-08-14T00:25:38;3.58;;;2.15;;
28772;SDS011;15925;51.222;5.678;2022-08-14T00:28:07;1.95;;;1.60;;
28772;SDS011;15925;51.222;5.678;2022-08-14T00:30:34;3.00;;;2.03;;
28772;SDS011;15925;51.222;5.678;2022-08-14T00:33:00;9.10;;;1.90;;
28772;SDS011;15925;51.222;5.678;2022-08-14T00:35:26;5.00;;;2.72;;
28772;SDS011;15925;51.222;5.678;2022-08-14T00:37:52;10.88;;;3.33;;
28772;SDS011;15925;51.222;5.678;2022-08-14T00:40:19;6.22;;;2.42;;
28772;SDS011;15925;51.222;5.678;2022-08-14T00:42:46;3.90;;;2.83;;
28772;SDS011;15925;51.222;5.678;2022-08-14T00:45:12;4.95;;;2.97;;
28772;SDS011;15925;51.222;5.678;2022-08-14T00:47:40;3.33;;;2.92;;
28772;SDS011;15925;51.222;5.678;2022-08-14T00:50:07;4.10;;;2.72;;
28772;SDS011;15925;51.222;5.678;2022-08-14T00:52:35;4.75;;;3.10;;
28772;SDS011;15925;51.222;5.678;2022-08-14T00:55:01;20.95;;;3.55;;
28772;SDS011;15925;51.222;5.678;2022-08-14T00:57:30;9.02;;;2.95;;
28772;SDS011;15925;51.222;5.678;2022-08-14T00:59:57;3.45;;;2.58;;
28772;SDS011;15925;51.222;5.678;2022-08-14T01:02:24;11.95;;;2.88;;
28772;SDS011;15925;51.222;5.678;2022-08-14T01:04:52;7.85;;;2.63;;
28772;SDS011;15925;51.222;5.678;2022-08-14T01:07:22;4.25;;;2.88;;
28772;SDS011;15925;51.222;5.678;2022-08-14T01:09:50;17.27;;;2.75;;
28772;SDS011;15925;51.222;5.678;2022-08-14T01:12:21;5.75;;;3.83;;
28772;SDS011;15925;51.222;5.678;2022-08-14T01:14:48;7.88;;;2.58;;
28772;SDS011;15925;51.222;5.678;2022-08-14T01:17:19;3.85;;;2.60;;
28772;SDS011;15925;51.222;5.678;2022-08-14T01:19:46;6.13;;;2.63;;
28772;SDS011;15925;51.222;5.678;2022-08-14T01:22:32;15.13;;;3.05;;
28772;SDS011;15925;51.222;5.678;2022-08-14T01:24:58;6.15;;;2.67;;
28772;SDS011;15925;51.222;5.678;2022-08-14T01:27:24;3.27;;;2.20;;
28772;SDS011;15925;51.222;5.678;2022-08-14T01:29:54;5.40;;;2.42;;
28772;SDS011;15925;51.222;5.678;2022-08-14T01:32:21;4.57;;;2.42;;
28772;SDS011;15925;51.222;5.678;2022-08-14T01:34:50;4.45;;;2.67;;
28772;SDS011;15925;51.222;5.678;2022-08-14T01:37:18;12.25;;;2.30;;
28772;SDS011;15925;51.222;5.678;2022-08-14T01:39:48;7.78;;;2.83;;
28772;SDS011;15925;51.222;5.678;2022-08-14T01:42:15;6.18;;;2.42;;
28772;SDS011;15925;51.222;5.678;2022-08-14T01:44:42;6.90;;;2.95;;
28772;SDS011;15925;51.222;5.678;2022-08-14T01:47:08;7.43;;;3.10;;
28772;SDS011;15925;51.222;5.678;2022-08-14T01:49:40;3.40;;;2.47;;
28772;SDS011;15925;51.222;5.678;2022-08-14T01:52:06;4.03;;;2.53;;
28772;SDS011;15925;51.222;5.678;2022-08-14T01:54:33;5.28;;;2.15;;
28772;SDS011;15925;51.222;5.678;2022-08-14T01:56:59;9.77;;;3.03;;
28772;SDS011;15925;51.222;5.678;2022-08-14T01:59:29;7.95;;;2.13;;
28772;SDS011;15925;51.222;5.678;2022-08-14T02:01:58;3.00;;;2.28;;
28772;SDS011;15925;51.222;5.678;2022-08-14T02:04:32;2.83;;;1.80;;
28772;SDS011;15925;51.222;5.678;2022-08-14T02:06:59;3.75;;;1.92;;
28772;SDS011;15925;51.222;5.678;2022-08-14T02:09:27;3.58;;;2.10;;
28772;SDS011;15925;51.222;5.678;2022-08-14T02:11:59;4.05;;;2.50;;
28772;SDS011;15925;51.222;5.678;2022-08-14T02:14:25;3.53;;;2.35;;
28772;SDS011;15925;51.222;5.678;2022-08-14T02:16:51;2.15;;;1.77;;
28772;SDS011;15925;51.222;5.678;2022-08-14T02:19:19;2.75;;;1.90;;
28772;SDS011;15925;51.222;5.678;2022-08-14T02:21:47;3.83;;;2.22;;
28772;SDS011;15925;51.222;5.678;2022-08-14T02:24:15;4.88;;;2.38;;
28772;SDS011;15925;51.222;5.678;2022-08-14T02:26:42;2.80;;;2.00;;
28772;SDS011;15925;51.222;5.678;2022-08-14T02:29:13;5.78;;;1.92;;
28772;SDS011;15925;51.222;5.678;2022-08-14T02:31:45;3.03;;;2.28;;
28772;SDS011;15925;51.222;5.678;2022-08-14T02:34:15;3.45;;;2.20;;
28772;SDS011;15925;51.222;5.678;2022-08-14T02:36:43;3.83;;;2.40;;
28772;SDS011;15925;51.222;5.678;2022-08-14T02:39:11;3.70;;;2.13;;
28772;SDS011;15925;51.222;5.678;2022-08-14T02:41:38;3.70;;;2.25;;
28772;SDS011;15925;51.222;5.678;2022-08-14T02:44:06;3.42;;;2.28;;
28772;SDS011;15925;51.222;5.678;2022-08-14T02:46:34;2.63;;;1.90;;
28772;SDS011;15925;51.222;5.678;2022-08-14T02:51:27;4.93;;;2.42;;
28772;SDS011;15925;51.222;5.678;2022-08-14T02:53:54;2.58;;;2.05;;
28772;SDS011;15925;51.222;5.678;2022-08-14T02:56:22;2.42;;;2.05;;
28772;SDS011;15925;51.222;5.678;2022-08-14T02:58:52;3.08;;;2.10;;
28772;SDS011;15925;51.222;5.678;2022-08-14T03:01:21;3.28;;;2.28;;
28772;SDS011;15925;51.222;5.678;2022-08-14T03:03:49;3.67;;;2.47;;
28772;SDS011;15925;51.222;5.678;2022-08-14T03:08:42;3.63;;;2.30;;
28772;SDS011;15925;51.222;5.678;2022-08-14T03:11:09;3.08;;;2.10;;
28772;SDS011;15925;51.222;5.678;2022-08-14T03:13:38;4.22;;;2.95;;
28772;SDS011;15925;51.222;5.678;2022-08-14T03:16:06;3.22;;;2.00;;
28772;SDS011;15925;51.222;5.678;2022-08-14T03:18:36;3.15;;;2.42;;
28772;SDS011;15925;51.222;5.678;2022-08-14T03:21:06;3.75;;;2.25;;
28772;SDS011;15925;51.222;5.678;2022-08-14T03:23:37;6.03;;;2.25;;
28772;SDS011;15925;51.222;5.678;2022-08-14T03:26:09;6.75;;;2.58;;
28772;SDS011;15925;51.222;5.678;2022-08-14T03:28:40;10.10;;;2.63;;
28772;SDS011;15925;51.222;5.678;2022-08-14T03:31:08;2.47;;;1.88;;
28772;SDS011;15925;51.222;5.678;2022-08-14T03:33:35;3.92;;;2.42;;
28772;SDS011;15925;51.222;5.678;2022-08-14T03:36:05;4.15;;;1.85;;
28772;SDS011;15925;51.222;5.678;2022-08-14T03:38:36;3.25;;;2.00;;
28772;SDS011;15925;51.222;5.678;2022-08-14T03:41:10;2.15;;;1.80;;
28772;SDS011;15925;51.222;5.678;2022-08-14T03:43:43;3.22;;;1.80;;
28772;SDS011;15925;51.222;5.678;2022-08-14T03:46:10;7.35;;;2.70;;
28772;SDS011;15925;51.222;5.678;2022-08-14T03:48:38;6.88;;;1.55;;
28772;SDS011;15925;51.222;5.678;2022-08-14T03:51:06;3.28;;;2.13;;
28772;SDS011;15925;51.222;5.678;2022-08-14T03:53:36;2.88;;;1.73;;
28772;SDS011;15925;51.222;5.678;2022-08-14T03:56:03;3.92;;;2.30;;
28772;SDS011;15925;51.222;5.678;2022-08-14T03:58:30;3.92;;;1.92;;
28772;SDS011;15925;51.222;5.678;2022-08-14T04:03:22;4.53;;;2.50;;
28772;SDS011;15925;51.222;5.678;2022-08-14T04:05:51;4.35;;;2.47;;
28772;SDS011;15925;51.222;5.678;2022-08-14T04:08:18;3.72;;;2.22;;
28772;SDS011;15925;51.222;5.678;2022-08-14T04:13:10;8.85;;;2.47;;
28772;SDS011;15925;51.222;5.678;2022-08-14T04:15:39;2.50;;;1.85;;
28772;SDS011;15925;51.222;5.678;2022-08-14T04:18:05;7.05;;;2.58;;
28772;SDS011;15925;51.222;5.678;2022-08-14T04:20:36;2.38;;;1.70;;
28772;SDS011;15925;51.222;5.678;2022-08-14T04:23:03;4.57;;;2.55;;
28772;SDS011;15925;51.222;5.678;2022-08-14T04:25:34;4.20;;;1.77;;
28772;SDS011;15925;51.222;5.678;2022-08-14T04:28:01;4.57;;;2.05;;
28772;SDS011;15925;51.222;5.678;2022-08-14T04:30:29;8.15;;;3.38;;
28772;SDS011;15925;51.222;5.678;2022-08-14T04:32:56;5.95;;;2.67;;
28772;SDS011;15925;51.222;5.678;2022-08-14T04:35:22;8.70;;;2.70;;
28772;SDS011;15925;51.222;5.678;2022-08-14T04:37:48;3.23;;;2.57;;
28772;SDS011;15925;51.222;5.678;2022-08-14T04:40:33;13.75;;;3.00;;
28772;SDS011;15925;51.222;5.678;2022-08-14T04:43:17;6.80;;;3.05;;
28772;SDS011;15925;51.222;5.678;2022-08-14T04:46:06;5.63;;;2.88;;
28772;SDS011;15925;51.222;5.678;2022-08-14T04:48:34;4.43;;;2.47;;
28772;SDS011;15925;51.222;5.678;2022-08-14T04:51:01;7.07;;;3.40;;
28772;SDS011;15925;51.222;5.678;2022-08-14T04:53:32;6.07;;;3.92;;
28772;SDS011;15925;51.222;5.678;2022-08-14T04:55:58;11.05;;;3.65;;
28772;SDS011;15925;51.222;5.678;2022-08-14T04:58:25;12.50;;;4.03;;
28772;SDS011;15925;51.222;5.678;2022-08-14T05:00:53;4.65;;;3.20;;
28772;SDS011;15925;51.222;5.678;2022-08-14T05:03:20;16.20;;;3.38;;
28772;SDS011;15925;51.222;5.678;2022-08-14T05:05:51;4.07;;;2.90;;
28772;SDS011;15925;51.222;5.678;2022-08-14T05:08:17;7.72;;;3.30;;
28772;SDS011;15925;51.222;5.678;2022-08-14T05:10:48;5.07;;;3.13;;
28772;SDS011;15925;51.222;5.678;2022-08-14T05:13:19;4.25;;;2.83;;
28772;SDS011;15925;51.222;5.678;2022-08-14T05:15:49;3.60;;;2.95;;
28772;SDS011;15925;51.222;5.678;2022-08-14T05:18:20;6.65;;;3.83;;
28772;SDS011;15925;51.222;5.678;2022-08-14T05:20:51;4.82;;;3.65;;
28772;SDS011;15925;51.222;5.678;2022-08-14T05:23:19;8.30;;;3.35;;
28772;SDS011;15925;51.222;5.678;2022-08-14T05:25:50;5.40;;;3.42;;
28772;SDS011;15925;51.222;5.678;2022-08-14T05:28:24;7.55;;;3.40;;
28772;SDS011;15925;51.222;5.678;2022-08-14T05:30:52;8.07;;;4.53;;
28772;SDS011;15925;51.222;5.678;2022-08-14T05:33:20;7.28;;;3.50;;
28772;SDS011;15925;51.222;5.678;2022-08-14T05:35:49;6.90;;;3.88;;
28772;SDS011;15925;51.222;5.678;2022-08-14T05:38:17;7.65;;;4.30;;
28772;SDS011;15925;51.222;5.678;2022-08-14T05:40:46;19.20;;;5.10;;
28772;SDS011;15925;51.222;5.678;2022-08-14T05:43:13;14.05;;;4.40;;
28772;SDS011;15925;51.222;5.678;2022-08-14T05:45:39;13.38;;;5.43;;
28772;SDS011;15925;51.222;5.678;2022-08-14T05:48:06;18.10;;;4.95;;
28772;SDS011;15925;51.222;5.678;2022-08-14T05:50:33;8.65;;;5.10;;
28772;SDS011;15925;51.222;5.678;2022-08-14T05:52:59;8.93;;;4.20;;
28772;SDS011;15925;51.222;5.678;2022-08-14T05:55:25;7.95;;;4.78;;
28772;SDS011;15925;51.222;5.678;2022-08-14T06:02:58;12.63;;;5.10;;
28772;SDS011;15925;51.222;5.678;2022-08-14T06:05:25;8.45;;;5.53;;
28772;SDS011;15925;51.222;5.678;2022-08-14T06:07:52;7.30;;;4.20;;
28772;SDS011;15925;51.222;5.678;2022-08-14T06:10:18;6.27;;;4.33;;
28772;SDS011;15925;51.222;5.678;2022-08-14T06:12:44;11.43;;;5.07;;
28772;SDS011;15925;51.222;5.678;2022-08-14T06:15:10;10.77;;;5.63;;
28772;SDS011;15925;51.222;5.678;2022-08-14T06:17:45;10.25;;;4.57;;
28772;SDS011;15925;51.222;5.678;2022-08-14T06:20:16;11.32;;;4.97;;
28772;SDS011;15925;51.222;5.678;2022-08-14T06:22:42;20.83;;;5.20;;
28772;SDS011;15925;51.222;5.678;2022-08-14T06:25:09;8.70;;;4.13;;
28772;SDS011;15925;51.222;5.678;2022-08-14T06:27:37;5.72;;;3.88;;
28772;SDS011;15925;51.222;5.678;2022-08-14T06:30:05;9.77;;;3.65;;
28772;SDS011;15925;51.222;5.678;2022-08-14T06:32:31;6.00;;;3.78;;
28772;SDS011;15925;51.222;5.678;2022-08-14T06:34:57;6.37;;;3.50;;
28772;SDS011;15925;51.222;5.678;2022-08-14T06:37:23;6.67;;;3.90;;
28772;SDS011;15925;51.222;5.678;2022-08-14T06:39:49;7.20;;;3.50;;
28772;SDS011;15925;51.222;5.678;2022-08-14T06:42:14;4.87;;;3.10;;
28772;SDS011;15925;51.222;5.678;2022-08-14T06:44:40;3.65;;;3.13;;
28772;SDS011;15925;51.222;5.678;2022-08-14T06:47:07;5.32;;;3.45;;
28772;SDS011;15925;51.222;5.678;2022-08-14T06:49:32;7.33;;;3.70;;
28772;SDS011;15925;51.222;5.678;2022-08-14T06:51:58;5.00;;;3.30;;
28772;SDS011;15925;51.222;5.678;2022-08-14T06:54:24;4.53;;;3.47;;
28772;SDS011;15925;51.222;5.678;2022-08-14T06:56:50;4.87;;;3.10;;
28772;SDS011;15925;51.222;5.678;2022-08-14T06:59:16;14.80;;;3.30;;
28772;SDS011;15925;51.222;5.678;2022-08-14T07:01:42;7.65;;;3.70;;
28772;SDS011;15925;51.222;5.678;2022-08-14T07:04:27;4.35;;;2.88;;
28772;SDS011;15925;51.222;5.678;2022-08-14T07:07:11;9.52;;;3.55;;
28772;SDS011;15925;51.222;5.678;2022-08-14T07:09:37;9.20;;;3.33;;
28772;SDS011;15925;51.222;5.678;2022-08-14T07:12:03;6.13;;;3.53;;
28772;SDS011;15925;51.222;5.678;2022-08-14T07:14:29;15.03;;;2.97;;
28772;SDS011;15925;51.222;5.678;2022-08-14T07:16:55;3.53;;;2.97;;
28772;SDS011;15925;51.222;5.678;2022-08-14T07:19:21;4.45;;;2.58;;
28772;SDS011;15925;51.222;5.678;2022-08-14T07:21:47;12.35;;;2.67;;
28772;SDS011;15925;51.222;5.678;2022-08-14T07:24:13;4.20;;;3.00;;
28772;SDS011;15925;51.222;5.678;2022-08-14T07:26:39;14.97;;;3.40;;
28772;SDS011;15925;51.222;5.678;2022-08-14T07:29:05;5.18;;;2.75;;
28772;SDS011;15925;51.222;5.678;2022-08-14T07:31:31;9.13;;;3.17;;
28772;SDS011;15925;51.222;5.678;2022-08-14T07:33:57;4.57;;;2.72;;
28772;SDS011;15925;51.222;5.678;2022-08-14T07:36:23;3.80;;;2.70;;
28772;SDS011;15925;51.222;5.678;2022-08-14T07:38:49;5.70;;;2.90;;
28772;SDS011;15925;51.222;5.678;2022-08-14T07:41:15;3.92;;;2.92;;
28772;SDS011;15925;51.222;5.678;2022-08-14T07:43:41;5.00;;;2.67;;
28772;SDS011;15925;51.222;5.678;2022-08-14T07:46:08;6.80;;;2.70;;
28772;SDS011;15925;51.222;5.678;2022-08-14T07:48:37;10.80;;;2.83;;
28772;SDS011;15925;51.222;5.678;2022-08-14T07:51:05;5.82;;;3.08;;
28772;SDS011;15925;51.222;5.678;2022-08-14T07:53:31;4.00;;;2.28;;
28772;SDS011;15925;51.222;5.678;2022-08-14T07:55:57;3.53;;;2.10;;
28772;SDS011;15925;51.222;5.678;2022-08-14T07:58:23;3.70;;;2.27;;
28772;SDS011;15925;51.222;5.678;2022-08-14T08:00:49;4.70;;;2.30;;
28772;SDS011;15925;51.222;5.678;2022-08-14T08:03:19;11.75;;;2.78;;
28772;SDS011;15925;51.222;5.678;2022-08-14T08:08:11;7.68;;;3.45;;
28772;SDS011;15925;51.222;5.678;2022-08-14T08:10:40;4.72;;;2.40;;
28772;SDS011;15925;51.222;5.678;2022-08-14T08:13:08;9.10;;;2.75;;
28772;SDS011;15925;51.222;5.678;2022-08-14T08:15:40;3.63;;;2.47;;
28772;SDS011;15925;51.222;5.678;2022-08-14T08:18:20;5.03;;;2.15;;
28772;SDS011;15925;51.222;5.678;2022-08-14T08:20:48;3.63;;;2.10;;
28772;SDS011;15925;51.222;5.678;2022-08-14T08:23:17;3.63;;;2.20;;
28772;SDS011;15925;51.222;5.678;2022-08-14T08:25:47;3.63;;;2.67;;
28772;SDS011;15925;51.222;5.678;2022-08-14T08:28:18;4.05;;;2.38;;
28772;SDS011;15925;51.222;5.678;2022-08-14T08:30:49;4.03;;;2.72;;
28772;SDS011;15925;51.222;5.678;2022-08-14T08:33:17;6.82;;;2.22;;
28772;SDS011;15925;51.222;5.678;2022-08-14T08:35:44;3.88;;;2.25;;
28772;SDS011;15925;51.222;5.678;2022-08-14T08:38:12;7.20;;;2.65;;
28772;SDS011;15925;51.222;5.678;2022-08-14T08:40:42;3.08;;;2.20;;
28772;SDS011;15925;51.222;5.678;2022-08-14T08:43:18;4.25;;;2.47;;
28772;SDS011;15925;51.222;5.678;2022-08-14T08:45:55;5.65;;;1.90;;
28772;SDS011;15925;51.222;5.678;2022-08-14T08:48:25;6.72;;;2.58;;
28772;SDS011;15925;51.222;5.678;2022-08-14T08:50:54;7.60;;;2.35;;
28772;SDS011;15925;51.222;5.678;2022-08-14T08:53:31;6.40;;;2.28;;
28772;SDS011;15925;51.222;5.678;2022-08-14T08:55:59;2.88;;;2.35;;
28772;SDS011;15925;51.222;5.678;2022-08-14T08:58:26;4.78;;;2.42;;
28772;SDS011;15925;51.222;5.678;2022-08-14T09:00:53;3.95;;;2.53;;
28772;SDS011;15925;51.222;5.678;2022-08-14T09:03:21;3.83;;;2.63;;
28772;SDS011;15925;51.222;5.678;2022-08-14T09:08:19;3.78;;;2.10;;
28772;SDS011;15925;51.222;5.678;2022-08-14T09:10:49;3.00;;;2.20;;
28772;SDS011;15925;51.222;5.678;2022-08-14T09:13:15;6.40;;;2.92;;
28772;SDS011;15925;51.222;5.678;2022-08-14T09:15:44;4.55;;;2.55;;
28772;SDS011;15925;51.222;5.678;2022-08-14T09:18:12;3.00;;;2.25;;
28772;SDS011;15925;51.222;5.678;2022-08-14T09:20:40;16.80;;;2.55;;
28772;SDS011;15925;51.222;5.678;2022-08-14T09:23:09;3.10;;;2.38;;
28772;SDS011;15925;51.222;5.678;2022-08-14T09:25:36;6.10;;;3.13;;
28772;SDS011;15925;51.222;5.678;2022-08-14T09:28:03;3.22;;;2.10;;
28772;SDS011;15925;51.222;5.678;2022-08-14T09:30:34;3.72;;;2.28;;
28772;SDS011;15925;51.222;5.678;2022-08-14T09:35:29;16.38;;;2.40;;
28772;SDS011;15925;51.222;5.678;2022-08-14T09:38:14;3.72;;;2.60;;
28772;SDS011;15925;51.222;5.678;2022-08-14T09:46:21;3.30;;;2.20;;
28772;SDS011;15925;51.222;5.678;2022-08-14T09:49:02;4.88;;;2.67;;
28772;SDS011;15925;51.222;5.678;2022-08-14T09:51:29;2.28;;;1.98;;
28772;SDS011;15925;51.222;5.678;2022-08-14T09:54:04;4.78;;;2.45;;
28772;SDS011;15925;51.222;5.678;2022-08-14T09:56:50;6.22;;;2.15;;
28772;SDS011;15925;51.222;5.678;2022-08-14T09:59:17;4.45;;;1.95;;
28772;SDS011;15925;51.222;5.678;2022-08-14T10:01:47;2.55;;;2.20;;
28772;SDS011;15925;51.222;5.678;2022-08-14T10:04:18;3.22;;;2.22;;
28772;SDS011;15925;51.222;5.678;2022-08-14T10:06:47;4.35;;;2.05;;
28772;SDS011;15925;51.222;5.678;2022-08-14T10:09:14;4.30;;;1.88;;
28772;SDS011;15925;51.222;5.678;2022-08-14T10:11:54;2.85;;;2.20;;
28772;SDS011;15925;51.222;5.678;2022-08-14T10:14:22;4.53;;;1.75;;
28772;SDS011;15925;51.222;5.678;2022-08-14T10:16:53;4.03;;;2.08;;
28772;SDS011;15925;51.222;5.678;2022-08-14T10:19:22;2.97;;;1.42;;
28772;SDS011;15925;51.222;5.678;2022-08-14T10:21:56;3.13;;;2.03;;
28772;SDS011;15925;51.222;5.678;2022-08-14T10:24:30;1.95;;;1.60;;
28772;SDS011;15925;51.222;5.678;2022-08-14T10:26:59;5.72;;;2.15;;
28772;SDS011;15925;51.222;5.678;2022-08-14T10:29:36;13.02;;;2.30;;
28772;SDS011;15925;51.222;5.678;2022-08-14T10:32:04;3.17;;;1.95;;
28772;SDS011;15925;51.222;5.678;2022-08-14T10:34:42;4.95;;;2.17;;
28772;SDS011;15925;51.222;5.678;2022-08-14T10:37:11;13.27;;;2.47;;
28772;SDS011;15925;51.222;5.678;2022-08-14T10:39:55;4.38;;;2.08;;
28772;SDS011;15925;51.222;5.678;2022-08-14T10:42:33;3.05;;;2.03;;
28772;SDS011;15925;51.222;5.678;2022-08-14T10:45:15;3.00;;;2.17;;
28772;SDS011;15925;51.222;5.678;2022-08-14T10:47:49;2.65;;;2.05;;
28772;SDS011;15925;51.222;5.678;2022-08-14T10:50:40;3.95;;;2.10;;
28772;SDS011;15925;51.222;5.678;2022-08-14T10:53:13;5.35;;;2.40;;
28772;SDS011;15925;51.222;5.678;2022-08-14T10:55:39;2.38;;;2.15;;
28772;SDS011;15925;51.222;5.678;2022-08-14T10:58:08;5.80;;;2.40;;
28772;SDS011;15925;51.222;5.678;2022-08-14T11:00:38;3.90;;;2.30;;
28772;SDS011;15925;51.222;5.678;2022-08-14T11:03:09;3.35;;;2.22;;
28772;SDS011;15925;51.222;5.678;2022-08-14T11:05:39;6.68;;;2.47;;
28772;SDS011;15925;51.222;5.678;2022-08-14T11:08:11;14.32;;;2.55;;
28772;SDS011;15925;51.222;5.678;2022-08-14T11:10:45;4.50;;;2.25;;
28772;SDS011;15925;51.222;5.678;2022-08-14T11:13:23;7.25;;;2.40;;
28772;SDS011;15925;51.222;5.678;2022-08-14T11:15:52;6.72;;;2.22;;
28772;SDS011;15925;51.222;5.678;2022-08-14T11:18:20;4.45;;;2.05;;
28772;SDS011;15925;51.222;5.678;2022-08-14T11:20:53;2.35;;;1.80;;
28772;SDS011;15925;51.222;5.678;2022-08-14T11:23:26;4.13;;;1.83;;
28772;SDS011;15925;51.222;5.678;2022-08-14T11:25:57;2.27;;;1.50;;
28772;SDS011;15925;51.222;5.678;2022-08-14T11:28:25;2.88;;;1.90;;
28772;SDS011;15925;51.222;5.678;2022-08-14T11:30:52;11.93;;;1.50;;
28772;SDS011;15925;51.222;5.678;2022-08-14T11:33:22;6.78;;;1.70;;
28772;SDS011;15925;51.222;5.678;2022-08-14T11:35:50;2.20;;;1.85;;
28772;SDS011;15925;51.222;5.678;2022-08-14T11:38:16;3.13;;;1.60;;
28772;SDS011;15925;51.222;5.678;2022-08-14T11:40:44;3.38;;;1.50;;
28772;SDS011;15925;51.222;5.678;2022-08-14T11:43:10;10.35;;;1.83;;
28772;SDS011;15925;51.222;5.678;2022-08-14T11:45:37;5.97;;;2.05;;
28772;SDS011;15925;51.222;5.678;2022-08-14T11:50:40;5.13;;;1.75;;
28772;SDS011;15925;51.222;5.678;2022-08-14T11:53:09;2.13;;;1.70;;
28772;SDS011;15925;51.222;5.678;2022-08-14T11:55:44;2.22;;;1.60;;
28772;SDS011;15925;51.222;5.678;2022-08-14T11:58:10;3.30;;;1.33;;
28772;SDS011;15925;51.222;5.678;2022-08-14T12:03:13;2.80;;;1.67;;
28772;SDS011;15925;51.222;5.678;2022-08-14T12:05:39;1.88;;;1.67;;
28772;SDS011;15925;51.222;5.678;2022-08-14T12:08:06;4.07;;;1.65;;
28772;SDS011;15925;51.222;5.678;2022-08-14T12:10:34;2.67;;;1.73;;
28772;SDS011;15925;51.222;5.678;2022-08-14T12:13:12;1.98;;;1.52;;
28772;SDS011;15925;51.222;5.678;2022-08-14T12:15:40;19.00;;;2.08;;
28772;SDS011;15925;51.222;5.678;2022-08-14T12:18:10;1.65;;;1.40;;
28772;SDS011;15925;51.222;5.678;2022-08-14T12:20:36;1.70;;;1.60;;
28772;SDS011;15925;51.222;5.678;2022-08-14T12:23:04;4.05;;;1.48;;
28772;SDS011;15925;51.222;5.678;2022-08-14T12:25:33;4.15;;;1.85;;
28772;SDS011;15925;51.222;5.678;2022-08-14T12:28:03;1.58;;;1.33;;
28772;SDS011;15925;51.222;5.678;2022-08-14T12:30:37;7.22;;;1.90;;
28772;SDS011;15925;51.222;5.678;2022-08-14T12:33:05;2.00;;;1.65;;
28772;SDS011;15925;51.222;5.678;2022-08-14T12:35:54;1.48;;;1.35;;
28772;SDS011;15925;51.222;5.678;2022-08-14T12:38:32;2.55;;;1.85;;
28772;SDS011;15925;51.222;5.678;2022-08-14T12:41:01;7.95;;;1.67;;
28772;SDS011;15925;51.222;5.678;2022-08-14T12:43:30;2.33;;;1.63;;
28772;SDS011;15925;51.222;5.678;2022-08-14T12:45:57;5.40;;;1.75;;
28772;SDS011;15925;51.222;5.678;2022-08-14T12:50:50;2.25;;;1.73;;
28772;SDS011;15925;51.222;5.678;2022-08-14T12:55:43;2.60;;;1.92;;
28772;SDS011;15925;51.222;5.678;2022-08-14T12:58:10;5.97;;;1.80;;
28772;SDS011;15925;51.222;5.678;2022-08-14T13:00:37;2.70;;;1.75;;
28772;SDS011;15925;51.222;5.678;2022-08-14T13:03:21;9.80;;;1.52;;
28772;SDS011;15925;51.222;5.678;2022-08-14T13:05:48;1.98;;;1.45;;
28772;SDS011;15925;51.222;5.678;2022-08-14T13:08:14;2.80;;;1.60;;
28772;SDS011;15925;51.222;5.678;2022-08-14T13:10:40;3.83;;;1.95;;
28772;SDS011;15925;51.222;5.678;2022-08-14T13:13:06;2.13;;;1.17;;
28772;SDS011;15925;51.222;5.678;2022-08-14T13:15:34;2.80;;;1.95;;
28772;SDS011;15925;51.222;5.678;2022-08-14T13:18:02;1.58;;;1.38;;
28772;SDS011;15925;51.222;5.678;2022-08-14T13:20:29;6.05;;;1.80;;
28772;SDS011;15925;51.222;5.678;2022-08-14T13:22:55;5.72;;;1.88;;
28772;SDS011;15925;51.222;5.678;2022-08-14T13:25:25;1.63;;;1.52;;
28772;SDS011;15925;51.222;5.678;2022-08-14T13:27:53;9.63;;;1.65;;
28772;SDS011;15925;51.222;5.678;2022-08-14T13:30:21;3.10;;;1.40;;
28772;SDS011;15925;51.222;5.678;2022-08-14T13:32:49;9.73;;;1.80;;
28772;SDS011;15925;51.222;5.678;2022-08-14T13:35:19;6.35;;;1.42;;
28772;SDS011;15925;51.222;5.678;2022-08-14T13:37:47;2.05;;;1.42;;
28772;SDS011;15925;51.222;5.678;2022-08-14T13:40:18;2.03;;;1.30;;
28772;SDS011;15925;51.222;5.678;2022-08-14T13:42:46;1.48;;;1.38;;
28772;SDS011;15925;51.222;5.678;2022-08-14T13:45:15;1.55;;;1.15;;
28772;SDS011;15925;51.222;5.678;2022-08-14T13:47:42;2.35;;;1.40;;
28772;SDS011;15925;51.222;5.678;2022-08-14T13:50:09;2.25;;;1.20;;
28772;SDS011;15925;51.222;5.678;2022-08-14T13:52:46;13.38;;;1.48;;
28772;SDS011;15925;51.222;5.678;2022-08-14T13:55:18;3.22;;;1.48;;
28772;SDS011;15925;51.222;5.678;2022-08-14T13:57:59;2.00;;;1.52;;
28772;SDS011;15925;51.222;5.678;2022-08-14T14:00:26;7.10;;;1.67;;
28772;SDS011;15925;51.222;5.678;2022-08-14T14:02:52;2.38;;;1.60;;
28772;SDS011;15925;51.222;5.678;2022-08-14T14:05:20;1.45;;;1.35;;
28772;SDS011;15925;51.222;5.678;2022-08-14T14:07:47;1.85;;;1.60;;
28772;SDS011;15925;51.222;5.678;2022-08-14T14:10:15;5.20;;;1.50;;
28772;SDS011;15925;51.222;5.678;2022-08-14T14:12:43;2.60;;;1.38;;
28772;SDS011;15925;51.222;5.678;2022-08-14T14:15:10;6.03;;;1.60;;
28772;SDS011;15925;51.222;5.678;2022-08-14T14:17:38;2.75;;;1.30;;
28772;SDS011;15925;51.222;5.678;2022-08-14T14:20:06;1.85;;;1.33;;
28772;SDS011;15925;51.222;5.678;2022-08-14T14:22:40;2.10;;;1.35;;
28772;SDS011;15925;51.222;5.678;2022-08-14T14:25:11;2.55;;;1.50;;
28772;SDS011;15925;51.222;5.678;2022-08-14T14:27:40;5.85;;;1.60;;
28772;SDS011;15925;51.222;5.678;2022-08-14T14:30:10;6.13;;;1.95;;
28772;SDS011;15925;51.222;5.678;2022-08-14T14:32:38;2.28;;;1.85;;
28772;SDS011;15925;51.222;5.678;2022-08-14T14:35:11;1.85;;;1.50;;
28772;SDS011;15925;51.222;5.678;2022-08-14T14:37:42;1.63;;;1.45;;
28772;SDS011;15925;51.222;5.678;2022-08-14T14:40:09;1.95;;;1.27;;
28772;SDS011;15925;51.222;5.678;2022-08-14T14:42:49;7.22;;;1.60;;
28772;SDS011;15925;51.222;5.678;2022-08-14T14:45:17;2.67;;;1.70;;
28772;SDS011;15925;51.222;5.678;2022-08-14T14:47:48;7.75;;;1.77;;
28772;SDS011;15925;51.222;5.678;2022-08-14T14:50:18;1.50;;;1.40;;
28772;SDS011;15925;51.222;5.678;2022-08-14T14:52:46;4.47;;;1.65;;
28772;SDS011;15925;51.222;5.678;2022-08-14T14:55:13;5.38;;;1.77;;
28772;SDS011;15925;51.222;5.678;2022-08-14T14:57:40;6.70;;;1.55;;
28772;SDS011;15925;51.222;5.678;2022-08-14T15:00:07;7.95;;;1.67;;
28772;SDS011;15925;51.222;5.678;2022-08-14T15:02:37;3.67;;;2.00;;
28772;SDS011;15925;51.222;5.678;2022-08-14T15:05:08;2.10;;;1.63;;
28772;SDS011;15925;51.222;5.678;2022-08-14T15:07:36;2.55;;;1.63;;
28772;SDS011;15925;51.222;5.678;2022-08-14T15:10:03;3.08;;;1.63;;
28772;SDS011;15925;51.222;5.678;2022-08-14T15:12:30;3.78;;;1.27;;
28772;SDS011;15925;51.222;5.678;2022-08-14T15:14:57;3.30;;;1.80;;
28772;SDS011;15925;51.222;5.678;2022-08-14T15:17:23;2.40;;;1.20;;
28772;SDS011;15925;51.222;5.678;2022-08-14T15:19:49;1.73;;;1.40;;
28772;SDS011;15925;51.222;5.678;2022-08-14T15:22:15;2.03;;;1.45;;
28772;SDS011;15925;51.222;5.678;2022-08-14T15:24:42;3.35;;;1.42;;
28772;SDS011;15925;51.222;5.678;2022-08-14T15:27:08;8.38;;;1.80;;
28772;SDS011;15925;51.222;5.678;2022-08-14T15:29:34;1.98;;;1.77;;
28772;SDS011;15925;51.222;5.678;2022-08-14T15:32:04;3.13;;;1.30;;
28772;SDS011;15925;51.222;5.678;2022-08-14T15:34:31;2.00;;;1.25;;
28772;SDS011;15925;51.222;5.678;2022-08-14T15:36:57;3.83;;;1.67;;